CJZ4 weather

Shellbrook Airport
Shellbrook, Saskatchewan, Canada

Public forecast

Using degrees Celsius for public forecast. Weather courtesy of forecast.io.

METAR (pilot weather report)

Closest report is Prince Albert Glass Field, 24.8 nm (46.0 km) E. Retrieved 2019/04/25 07:00 UTC (23 minutes ago):

CYPA 250700Z 30018G24KT 15SM SCT100 05/M02 A2990 RMK AC3 SLP138

TAF (pilot weather forecast)

Closest forecast is Prince Albert Glass Field, 24.8 nm (46.0 km) E. Retrieved 2019/04/25 07:39 UTC (0 seconds ago):

TAF CYPA 250638Z 2507/2519 31012G22KT P6SM SCT100 BKN280 TEMPO 2507/2519 BKN100 RMK NXT FCST BY 251300Z